sensor_id;sensor_type;location;lat;lon;timestamp;P1;durP1;ratioP1;P2;durP2;ratioP2
2650;SDS011;1335;48.180;16.342;2022-07-29T00:02:01;4.87;;;3.63;;
2650;SDS011;1335;48.180;16.342;2022-07-29T00:04:29;4.90;;;3.80;;
2650;SDS011;1335;48.180;16.342;2022-07-29T00:07:05;3.73;;;3.43;;
2650;SDS011;1335;48.180;16.342;2022-07-29T00:09:33;3.90;;;3.53;;
2650;SDS011;1335;48.180;16.342;2022-07-29T00:12:01;6.57;;;3.90;;
2650;SDS011;1335;48.180;16.342;2022-07-29T00:14:29;4.10;;;3.80;;
2650;SDS011;1335;48.180;16.342;2022-07-29T00:16:56;3.93;;;3.50;;
2650;SDS011;1335;48.180;16.342;2022-07-29T00:19:25;4.00;;;3.60;;
2650;SDS011;1335;48.180;16.342;2022-07-29T00:21:54;4.80;;;3.70;;
2650;SDS011;1335;48.180;16.342;2022-07-29T00:24:21;5.13;;;4.07;;
2650;SDS011;1335;48.180;16.342;2022-07-29T00:26:49;4.20;;;3.90;;
2650;SDS011;1335;48.180;16.342;2022-07-29T00:29:17;4.87;;;4.47;;
2650;SDS011;1335;48.180;16.342;2022-07-29T00:31:44;4.97;;;4.30;;
2650;SDS011;1335;48.180;16.342;2022-07-29T00:34:15;4.20;;;3.90;;
2650;SDS011;1335;48.180;16.342;2022-07-29T00:37:00;6.47;;;3.90;;
2650;SDS011;1335;48.180;16.342;2022-07-29T00:39:27;5.10;;;4.47;;
2650;SDS011;1335;48.180;16.342;2022-07-29T00:41:55;7.27;;;4.17;;
2650;SDS011;1335;48.180;16.342;2022-07-29T00:44:22;3.67;;;3.37;;
2650;SDS011;1335;48.180;16.342;2022-07-29T00:46:49;4.20;;;3.90;;
2650;SDS011;1335;48.180;16.342;2022-07-29T00:49:18;5.00;;;4.50;;
2650;SDS011;1335;48.180;16.342;2022-07-29T00:51:45;5.10;;;3.93;;
2650;SDS011;1335;48.180;16.342;2022-07-29T00:54:15;5.10;;;3.83;;
2650;SDS011;1335;48.180;16.342;2022-07-29T00:56:44;6.10;;;3.90;;
2650;SDS011;1335;48.180;16.342;2022-07-29T00:59:11;4.10;;;3.80;;
2650;SDS011;1335;48.180;16.342;2022-07-29T01:01:39;5.90;;;4.30;;
2650;SDS011;1335;48.180;16.342;2022-07-29T01:04:08;4.60;;;3.87;;
2650;SDS011;1335;48.180;16.342;2022-07-29T01:06:38;4.30;;;3.50;;
2650;SDS011;1335;48.180;16.342;2022-07-29T01:09:06;5.40;;;4.20;;
2650;SDS011;1335;48.180;16.342;2022-07-29T01:11:34;6.03;;;3.97;;
2650;SDS011;1335;48.180;16.342;2022-07-29T01:14:02;4.00;;;3.77;;
2650;SDS011;1335;48.180;16.342;2022-07-29T01:16:32;4.73;;;4.20;;
2650;SDS011;1335;48.180;16.342;2022-07-29T01:19:07;5.67;;;4.20;;
2650;SDS011;1335;48.180;16.342;2022-07-29T01:21:49;4.80;;;4.40;;
2650;SDS011;1335;48.180;16.342;2022-07-29T01:24:37;5.23;;;4.10;;
2650;SDS011;1335;48.180;16.342;2022-07-29T01:27:51;4.07;;;3.77;;
2650;SDS011;1335;48.180;16.342;2022-07-29T01:30:33;4.37;;;3.97;;
2650;SDS011;1335;48.180;16.342;2022-07-29T01:33:06;6.17;;;4.10;;
2650;SDS011;1335;48.180;16.342;2022-07-29T01:35:57;6.30;;;4.23;;
2650;SDS011;1335;48.180;16.342;2022-07-29T01:38:27;4.50;;;4.10;;
2650;SDS011;1335;48.180;16.342;2022-07-29T01:40:58;8.33;;;4.10;;
2650;SDS011;1335;48.180;16.342;2022-07-29T01:43:32;4.83;;;4.20;;
2650;SDS011;1335;48.180;16.342;2022-07-29T01:46:09;4.70;;;4.40;;
2650;SDS011;1335;48.180;16.342;2022-07-29T01:48:42;6.37;;;4.37;;
2650;SDS011;1335;48.180;16.342;2022-07-29T01:51:14;4.67;;;4.27;;
2650;SDS011;1335;48.180;16.342;2022-07-29T01:53:47;5.60;;;4.60;;
2650;SDS011;1335;48.180;16.342;2022-07-29T01:56:21;4.73;;;4.30;;
2650;SDS011;1335;48.180;16.342;2022-07-29T01:58:50;5.13;;;4.73;;
2650;SDS011;1335;48.180;16.342;2022-07-29T02:01:22;4.10;;;3.80;;
2650;SDS011;1335;48.180;16.342;2022-07-29T02:03:52;5.33;;;4.53;;
2650;SDS011;1335;48.180;16.342;2022-07-29T02:06:23;4.77;;;4.37;;
2650;SDS011;1335;48.180;16.342;2022-07-29T02:08:55;4.80;;;4.30;;
2650;SDS011;1335;48.180;16.342;2022-07-29T02:11:47;5.97;;;4.33;;
2650;SDS011;1335;48.180;16.342;2022-07-29T02:14:18;4.67;;;4.23;;
2650;SDS011;1335;48.180;16.342;2022-07-29T02:16:48;6.33;;;4.53;;
2650;SDS011;1335;48.180;16.342;2022-07-29T02:19:20;5.37;;;4.87;;
2650;SDS011;1335;48.180;16.342;2022-07-29T02:21:50;4.67;;;4.27;;
2650;SDS011;1335;48.180;16.342;2022-07-29T02:24:19;5.20;;;4.40;;
2650;SDS011;1335;48.180;16.342;2022-07-29T02:26:49;4.77;;;4.47;;
2650;SDS011;1335;48.180;16.342;2022-07-29T02:29:19;4.90;;;4.50;;
2650;SDS011;1335;48.180;16.342;2022-07-29T02:31:50;6.00;;;4.30;;
2650;SDS011;1335;48.180;16.342;2022-07-29T02:34:19;5.20;;;4.70;;
2650;SDS011;1335;48.180;16.342;2022-07-29T02:36:47;5.43;;;4.93;;
2650;SDS011;1335;48.180;16.342;2022-07-29T02:39:15;4.83;;;4.43;;
2650;SDS011;1335;48.180;16.342;2022-07-29T02:41:45;10.00;;;4.73;;
2650;SDS011;1335;48.180;16.342;2022-07-29T02:44:15;6.40;;;5.00;;
2650;SDS011;1335;48.180;16.342;2022-07-29T02:46:52;6.07;;;5.43;;
2650;SDS011;1335;48.180;16.342;2022-07-29T02:49:28;5.77;;;5.10;;
2650;SDS011;1335;48.180;16.342;2022-07-29T02:52:03;5.10;;;4.73;;
2650;SDS011;1335;48.180;16.342;2022-07-29T02:54:35;6.10;;;5.60;;
2650;SDS011;1335;48.180;16.342;2022-07-29T02:57:08;5.20;;;4.80;;
2650;SDS011;1335;48.180;16.342;2022-07-29T02:59:41;6.07;;;5.57;;
2650;SDS011;1335;48.180;16.342;2022-07-29T03:02:13;4.80;;;4.40;;
2650;SDS011;1335;48.180;16.342;2022-07-29T03:04:41;5.13;;;4.73;;
2650;SDS011;1335;48.180;16.342;2022-07-29T03:07:10;6.73;;;5.20;;
2650;SDS011;1335;48.180;16.342;2022-07-29T03:09:40;7.43;;;5.10;;
2650;SDS011;1335;48.180;16.342;2022-07-29T03:12:09;5.80;;;5.20;;
2650;SDS011;1335;48.180;16.342;2022-07-29T03:14:37;5.20;;;4.50;;
2650;SDS011;1335;48.180;16.342;2022-07-29T03:17:05;5.50;;;5.03;;
2650;SDS011;1335;48.180;16.342;2022-07-29T03:19:35;6.50;;;4.80;;
2650;SDS011;1335;48.180;16.342;2022-07-29T03:22:02;6.17;;;5.57;;
2650;SDS011;1335;48.180;16.342;2022-07-29T03:24:32;6.63;;;4.40;;
2650;SDS011;1335;48.180;16.342;2022-07-29T03:27:02;5.33;;;4.93;;
2650;SDS011;1335;48.180;16.342;2022-07-29T03:29:30;6.17;;;5.50;;
2650;SDS011;1335;48.180;16.342;2022-07-29T03:31:58;5.50;;;5.00;;
2650;SDS011;1335;48.180;16.342;2022-07-29T03:34:26;6.40;;;5.80;;
2650;SDS011;1335;48.180;16.342;2022-07-29T03:36:56;9.00;;;6.13;;
2650;SDS011;1335;48.180;16.342;2022-07-29T03:39:24;6.87;;;6.17;;
2650;SDS011;1335;48.180;16.342;2022-07-29T03:41:55;5.97;;;5.57;;
2650;SDS011;1335;48.180;16.342;2022-07-29T03:44:24;7.03;;;5.00;;
2650;SDS011;1335;48.180;16.342;2022-07-29T03:46:54;6.33;;;4.70;;
2650;SDS011;1335;48.180;16.342;2022-07-29T03:49:25;6.03;;;5.10;;
2650;SDS011;1335;48.180;16.342;2022-07-29T03:51:55;5.97;;;5.50;;
2650;SDS011;1335;48.180;16.342;2022-07-29T03:54:22;5.77;;;5.30;;
2650;SDS011;1335;48.180;16.342;2022-07-29T03:56:50;7.73;;;5.80;;
2650;SDS011;1335;48.180;16.342;2022-07-29T03:59:19;5.67;;;5.03;;
2650;SDS011;1335;48.180;16.342;2022-07-29T04:01:47;7.23;;;6.23;;
2650;SDS011;1335;48.180;16.342;2022-07-29T04:04:16;9.80;;;7.20;;
2650;SDS011;1335;48.180;16.342;2022-07-29T04:06:45;7.20;;;6.20;;
2650;SDS011;1335;48.180;16.342;2022-07-29T04:09:15;6.77;;;6.17;;
2650;SDS011;1335;48.180;16.342;2022-07-29T04:11:42;6.43;;;5.83;;
2650;SDS011;1335;48.180;16.342;2022-07-29T04:14:10;7.63;;;5.80;;
2650;SDS011;1335;48.180;16.342;2022-07-29T04:16:37;6.03;;;5.50;;
2650;SDS011;1335;48.180;16.342;2022-07-29T04:19:04;6.13;;;5.53;;
2650;SDS011;1335;48.180;16.342;2022-07-29T04:21:34;6.40;;;5.80;;
2650;SDS011;1335;48.180;16.342;2022-07-29T04:24:04;7.33;;;5.83;;
2650;SDS011;1335;48.180;16.342;2022-07-29T04:26:33;5.93;;;5.50;;
2650;SDS011;1335;48.180;16.342;2022-07-29T04:29:01;5.37;;;4.83;;
2650;SDS011;1335;48.180;16.342;2022-07-29T04:31:28;5.80;;;5.20;;
2650;SDS011;1335;48.180;16.342;2022-07-29T04:33:56;6.00;;;5.47;;
2650;SDS011;1335;48.180;16.342;2022-07-29T04:36:23;7.53;;;5.53;;
2650;SDS011;1335;48.180;16.342;2022-07-29T04:38:50;7.03;;;5.50;;
2650;SDS011;1335;48.180;16.342;2022-07-29T04:41:17;5.90;;;5.30;;
2650;SDS011;1335;48.180;16.342;2022-07-29T04:43:46;5.43;;;5.00;;
2650;SDS011;1335;48.180;16.342;2022-07-29T04:46:13;6.17;;;5.30;;
2650;SDS011;1335;48.180;16.342;2022-07-29T04:48:41;7.90;;;4.97;;
2650;SDS011;1335;48.180;16.342;2022-07-29T04:51:08;5.67;;;5.17;;
2650;SDS011;1335;48.180;16.342;2022-07-29T04:53:35;5.80;;;5.20;;
2650;SDS011;1335;48.180;16.342;2022-07-29T04:56:02;5.63;;;5.17;;
2650;SDS011;1335;48.180;16.342;2022-07-29T04:58:30;6.90;;;5.17;;
2650;SDS011;1335;48.180;16.342;2022-07-29T05:00:59;6.37;;;5.77;;
2650;SDS011;1335;48.180;16.342;2022-07-29T05:03:26;8.23;;;5.33;;
2650;SDS011;1335;48.180;16.342;2022-07-29T05:05:54;9.30;;;5.27;;
2650;SDS011;1335;48.180;16.342;2022-07-29T05:08:21;5.53;;;4.90;;
2650;SDS011;1335;48.180;16.342;2022-07-29T05:10:48;6.10;;;5.50;;
2650;SDS011;1335;48.180;16.342;2022-07-29T05:13:16;5.53;;;5.03;;
2650;SDS011;1335;48.180;16.342;2022-07-29T05:15:43;5.23;;;4.73;;
2650;SDS011;1335;48.180;16.342;2022-07-29T05:18:11;5.93;;;4.90;;
2650;SDS011;1335;48.180;16.342;2022-07-29T05:20:39;8.20;;;5.17;;
2650;SDS011;1335;48.180;16.342;2022-07-29T05:23:07;5.63;;;4.83;;
2650;SDS011;1335;48.180;16.342;2022-07-29T05:25:37;6.17;;;5.47;;
2650;SDS011;1335;48.180;16.342;2022-07-29T05:28:05;8.10;;;5.00;;
2650;SDS011;1335;48.180;16.342;2022-07-29T05:30:33;7.37;;;4.50;;
2650;SDS011;1335;48.180;16.342;2022-07-29T05:33:00;5.07;;;4.67;;
2650;SDS011;1335;48.180;16.342;2022-07-29T05:35:29;5.43;;;4.60;;
2650;SDS011;1335;48.180;16.342;2022-07-29T05:37:56;7.67;;;5.67;;
2650;SDS011;1335;48.180;16.342;2022-07-29T05:40:24;5.60;;;5.10;;
2650;SDS011;1335;48.180;16.342;2022-07-29T05:42:51;4.73;;;4.30;;
2650;SDS011;1335;48.180;16.342;2022-07-29T05:45:20;6.17;;;5.03;;
2650;SDS011;1335;48.180;16.342;2022-07-29T05:47:48;8.53;;;4.50;;
2650;SDS011;1335;48.180;16.342;2022-07-29T05:50:15;11.30;;;5.00;;
2650;SDS011;1335;48.180;16.342;2022-07-29T05:52:47;7.37;;;5.30;;
2650;SDS011;1335;48.180;16.342;2022-07-29T05:55:14;5.30;;;4.90;;
2650;SDS011;1335;48.180;16.342;2022-07-29T05:57:42;7.90;;;5.70;;
2650;SDS011;1335;48.180;16.342;2022-07-29T06:00:11;5.03;;;4.47;;
2650;SDS011;1335;48.180;16.342;2022-07-29T06:02:39;4.50;;;4.20;;
2650;SDS011;1335;48.180;16.342;2022-07-29T06:05:20;5.17;;;4.53;;
2650;SDS011;1335;48.180;16.342;2022-07-29T06:07:51;5.20;;;4.40;;
2650;SDS011;1335;48.180;16.342;2022-07-29T06:10:19;6.83;;;4.83;;
2650;SDS011;1335;48.180;16.342;2022-07-29T06:13:02;4.57;;;4.17;;
2650;SDS011;1335;48.180;16.342;2022-07-29T06:15:29;5.73;;;4.37;;
2650;SDS011;1335;48.180;16.342;2022-07-29T06:17:58;9.23;;;5.60;;
2650;SDS011;1335;48.180;16.342;2022-07-29T06:21:16;4.77;;;4.37;;
2650;SDS011;1335;48.180;16.342;2022-07-29T06:23:52;4.57;;;4.17;;
2650;SDS011;1335;48.180;16.342;2022-07-29T06:26:21;4.97;;;4.40;;
2650;SDS011;1335;48.180;16.342;2022-07-29T06:28:49;6.53;;;4.30;;
2650;SDS011;1335;48.180;16.342;2022-07-29T06:31:16;12.07;;;5.33;;
2650;SDS011;1335;48.180;16.342;2022-07-29T06:33:48;7.00;;;4.30;;
2650;SDS011;1335;48.180;16.342;2022-07-29T06:36:16;5.10;;;4.60;;
2650;SDS011;1335;48.180;16.342;2022-07-29T06:38:43;5.00;;;4.57;;
2650;SDS011;1335;48.180;16.342;2022-07-29T06:41:23;7.53;;;4.10;;
2650;SDS011;1335;48.180;16.342;2022-07-29T06:43:51;9.13;;;5.03;;
2650;SDS011;1335;48.180;16.342;2022-07-29T06:46:39;4.53;;;4.13;;
2650;SDS011;1335;48.180;16.342;2022-07-29T06:49:16;9.43;;;4.13;;
2650;SDS011;1335;48.180;16.342;2022-07-29T06:51:51;5.83;;;5.23;;
2650;SDS011;1335;48.180;16.342;2022-07-29T06:54:18;15.87;;;5.80;;
2650;SDS011;1335;48.180;16.342;2022-07-29T06:56:49;4.90;;;4.50;;
2650;SDS011;1335;48.180;16.342;2022-07-29T06:59:16;8.40;;;4.27;;
2650;SDS011;1335;48.180;16.342;2022-07-29T07:01:43;5.27;;;4.30;;
2650;SDS011;1335;48.180;16.342;2022-07-29T07:04:11;5.30;;;4.83;;
2650;SDS011;1335;48.180;16.342;2022-07-29T07:06:39;4.70;;;4.40;;
2650;SDS011;1335;48.180;16.342;2022-07-29T07:09:09;5.00;;;4.60;;
2650;SDS011;1335;48.180;16.342;2022-07-29T07:11:36;4.90;;;4.40;;
2650;SDS011;1335;48.180;16.342;2022-07-29T07:14:04;5.23;;;4.83;;
2650;SDS011;1335;48.180;16.342;2022-07-29T07:16:31;4.60;;;4.17;;
2650;SDS011;1335;48.180;16.342;2022-07-29T07:18:59;4.60;;;4.20;;
2650;SDS011;1335;48.180;16.342;2022-07-29T07:21:26;8.37;;;4.73;;
2650;SDS011;1335;48.180;16.342;2022-07-29T07:23:53;4.97;;;4.57;;
2650;SDS011;1335;48.180;16.342;2022-07-29T07:26:21;6.07;;;4.50;;
2650;SDS011;1335;48.180;16.342;2022-07-29T07:28:48;4.77;;;4.27;;
2650;SDS011;1335;48.180;16.342;2022-07-29T07:31:16;7.00;;;4.43;;
2650;SDS011;1335;48.180;16.342;2022-07-29T07:33:44;6.40;;;4.30;;
2650;SDS011;1335;48.180;16.342;2022-07-29T07:36:11;4.63;;;4.10;;
2650;SDS011;1335;48.180;16.342;2022-07-29T07:38:44;4.83;;;4.37;;
2650;SDS011;1335;48.180;16.342;2022-07-29T07:41:11;5.70;;;4.90;;
2650;SDS011;1335;48.180;16.342;2022-07-29T07:43:38;4.70;;;4.33;;
2650;SDS011;1335;48.180;16.342;2022-07-29T07:46:05;6.43;;;4.33;;
2650;SDS011;1335;48.180;16.342;2022-07-29T07:48:34;6.73;;;4.30;;
2650;SDS011;1335;48.180;16.342;2022-07-29T07:51:01;4.73;;;4.33;;
2650;SDS011;1335;48.180;16.342;2022-07-29T07:53:28;12.13;;;6.17;;
2650;SDS011;1335;48.180;16.342;2022-07-29T07:55:55;11.10;;;5.80;;
2650;SDS011;1335;48.180;16.342;2022-07-29T07:58:23;9.83;;;4.57;;
2650;SDS011;1335;48.180;16.342;2022-07-29T08:00:50;7.37;;;4.87;;
2650;SDS011;1335;48.180;16.342;2022-07-29T08:03:17;12.10;;;4.73;;
2650;SDS011;1335;48.180;16.342;2022-07-29T08:05:45;8.90;;;4.40;;
2650;SDS011;1335;48.180;16.342;2022-07-29T08:08:13;4.90;;;4.53;;
2650;SDS011;1335;48.180;16.342;2022-07-29T08:10:40;6.17;;;4.63;;
2650;SDS011;1335;48.180;16.342;2022-07-29T08:13:21;7.17;;;4.53;;
2650;SDS011;1335;48.180;16.342;2022-07-29T08:15:50;4.60;;;4.30;;
2650;SDS011;1335;48.180;16.342;2022-07-29T08:18:22;5.60;;;4.60;;
2650;SDS011;1335;48.180;16.342;2022-07-29T08:20:51;9.30;;;4.40;;
2650;SDS011;1335;48.180;16.342;2022-07-29T08:23:18;4.37;;;3.97;;
2650;SDS011;1335;48.180;16.342;2022-07-29T08:25:46;5.03;;;4.57;;
2650;SDS011;1335;48.180;16.342;2022-07-29T08:28:13;4.57;;;4.17;;
2650;SDS011;1335;48.180;16.342;2022-07-29T08:30:41;5.03;;;4.50;;
2650;SDS011;1335;48.180;16.342;2022-07-29T08:33:13;7.00;;;4.80;;
2650;SDS011;1335;48.180;16.342;2022-07-29T08:35:46;4.43;;;4.13;;
2650;SDS011;1335;48.180;16.342;2022-07-29T08:40:58;8.27;;;5.33;;
2650;SDS011;1335;48.180;16.342;2022-07-29T08:43:27;5.17;;;4.60;;
2650;SDS011;1335;48.180;16.342;2022-07-29T08:45:55;4.70;;;4.30;;
2650;SDS011;1335;48.180;16.342;2022-07-29T08:48:34;4.30;;;4.00;;
2650;SDS011;1335;48.180;16.342;2022-07-29T08:51:14;5.30;;;3.97;;
2650;SDS011;1335;48.180;16.342;2022-07-29T08:53:45;4.47;;;3.80;;
2650;SDS011;1335;48.180;16.342;2022-07-29T08:56:14;5.03;;;4.60;;
2650;SDS011;1335;48.180;16.342;2022-07-29T08:58:56;4.87;;;4.30;;
2650;SDS011;1335;48.180;16.342;2022-07-29T09:01:40;4.67;;;4.27;;
2650;SDS011;1335;48.180;16.342;2022-07-29T09:04:22;5.80;;;3.80;;
2650;SDS011;1335;48.180;16.342;2022-07-29T09:06:53;3.87;;;3.67;;
2650;SDS011;1335;48.180;16.342;2022-07-29T09:09:34;4.87;;;4.00;;
2650;SDS011;1335;48.180;16.342;2022-07-29T09:12:03;3.80;;;3.47;;
2650;SDS011;1335;48.180;16.342;2022-07-29T09:14:32;8.37;;;3.97;;
2650;SDS011;1335;48.180;16.342;2022-07-29T09:17:01;3.60;;;3.40;;
2650;SDS011;1335;48.180;16.342;2022-07-29T09:19:29;3.10;;;2.83;;
2650;SDS011;1335;48.180;16.342;2022-07-29T09:22:00;3.80;;;3.50;;
2650;SDS011;1335;48.180;16.342;2022-07-29T09:24:38;4.43;;;3.80;;
2650;SDS011;1335;48.180;16.342;2022-07-29T09:27:11;5.53;;;3.80;;
2650;SDS011;1335;48.180;16.342;2022-07-29T09:29:57;5.90;;;4.50;;
2650;SDS011;1335;48.180;16.342;2022-07-29T09:32:29;5.30;;;4.60;;
2650;SDS011;1335;48.180;16.342;2022-07-29T09:37:44;5.23;;;4.83;;
2650;SDS011;1335;48.180;16.342;2022-07-29T09:40:16;4.67;;;4.00;;
2650;SDS011;1335;48.180;16.342;2022-07-29T09:42:58;3.63;;;3.43;;
2650;SDS011;1335;48.180;16.342;2022-07-29T09:45:38;6.67;;;5.87;;
2650;SDS011;1335;48.180;16.342;2022-07-29T09:48:13;4.93;;;4.07;;
2650;SDS011;1335;48.180;16.342;2022-07-29T09:50:44;8.13;;;4.10;;
2650;SDS011;1335;48.180;16.342;2022-07-29T09:53:29;3.97;;;3.60;;
2650;SDS011;1335;48.180;16.342;2022-07-29T09:55:59;3.70;;;3.50;;
2650;SDS011;1335;48.180;16.342;2022-07-29T09:58:27;5.40;;;4.90;;
2650;SDS011;1335;48.180;16.342;2022-07-29T10:00:55;5.13;;;4.20;;
2650;SDS011;1335;48.180;16.342;2022-07-29T10:03:23;5.30;;;4.00;;
2650;SDS011;1335;48.180;16.342;2022-07-29T10:06:06;4.70;;;4.30;;
2650;SDS011;1335;48.180;16.342;2022-07-29T10:08:39;4.63;;;4.20;;
2650;SDS011;1335;48.180;16.342;2022-07-29T10:11:14;5.33;;;4.13;;
2650;SDS011;1335;48.180;16.342;2022-07-29T10:13:43;5.03;;;4.53;;
2650;SDS011;1335;48.180;16.342;2022-07-29T10:16:11;5.60;;;3.60;;
2650;SDS011;1335;48.180;16.342;2022-07-29T10:18:40;5.60;;;4.30;;
2650;SDS011;1335;48.180;16.342;2022-07-29T10:21:08;4.73;;;3.40;;
2650;SDS011;1335;48.180;16.342;2022-07-29T10:23:36;4.63;;;4.10;;
2650;SDS011;1335;48.180;16.342;2022-07-29T10:26:06;6.00;;;4.07;;
2650;SDS011;1335;48.180;16.342;2022-07-29T10:29:10;4.50;;;4.07;;
2650;SDS011;1335;48.180;16.342;2022-07-29T10:31:40;4.90;;;4.13;;
2650;SDS011;1335;48.180;16.342;2022-07-29T10:37:46;5.30;;;4.73;;
2650;SDS011;1335;48.180;16.342;2022-07-29T10:40:49;6.03;;;5.53;;
2650;SDS011;1335;48.180;16.342;2022-07-29T10:43:45;5.77;;;4.93;;
2650;SDS011;1335;48.180;16.342;2022-07-29T10:46:17;4.93;;;4.50;;
2650;SDS011;1335;48.180;16.342;2022-07-29T10:49:04;5.27;;;4.77;;
2650;SDS011;1335;48.180;16.342;2022-07-29T10:51:52;6.67;;;4.27;;
2650;SDS011;1335;48.180;16.342;2022-07-29T10:54:37;4.33;;;3.93;;
2650;SDS011;1335;48.180;16.342;2022-07-29T11:03:03;5.37;;;3.97;;
2650;SDS011;1335;48.180;16.342;2022-07-29T11:08:19;4.53;;;4.13;;
2650;SDS011;1335;48.180;16.342;2022-07-29T11:14:06;5.60;;;4.33;;
2650;SDS011;1335;48.180;16.342;2022-07-29T11:20:02;5.03;;;4.50;;
2650;SDS011;1335;48.180;16.342;2022-07-29T11:22:58;5.27;;;4.77;;
2650;SDS011;1335;48.180;16.342;2022-07-29T11:25:29;7.20;;;6.50;;
2650;SDS011;1335;48.180;16.342;2022-07-29T11:28:08;4.70;;;4.03;;
2650;SDS011;1335;48.180;16.342;2022-07-29T11:30:47;5.53;;;4.47;;
2650;SDS011;1335;48.180;16.342;2022-07-29T11:33:31;6.50;;;4.37;;
2650;SDS011;1335;48.180;16.342;2022-07-29T11:39:25;5.23;;;4.23;;
2650;SDS011;1335;48.180;16.342;2022-07-29T11:42:38;4.13;;;3.93;;
2650;SDS011;1335;48.180;16.342;2022-07-29T11:45:25;8.37;;;4.77;;
2650;SDS011;1335;48.180;16.342;2022-07-29T11:48:15;4.13;;;3.83;;
2650;SDS011;1335;48.180;16.342;2022-07-29T11:50:43;6.97;;;4.40;;
2650;SDS011;1335;48.180;16.342;2022-07-29T11:56:15;4.90;;;4.50;;
2650;SDS011;1335;48.180;16.342;2022-07-29T11:58:47;7.47;;;4.30;;
2650;SDS011;1335;48.180;16.342;2022-07-29T12:01:25;4.83;;;4.43;;
2650;SDS011;1335;48.180;16.342;2022-07-29T12:04:26;6.77;;;4.43;;
2650;SDS011;1335;48.180;16.342;2022-07-29T12:06:55;8.67;;;4.70;;
2650;SDS011;1335;48.180;16.342;2022-07-29T12:12:07;4.87;;;4.57;;
2650;SDS011;1335;48.180;16.342;2022-07-29T12:14:36;8.20;;;4.10;;
2650;SDS011;1335;48.180;16.342;2022-07-29T12:17:24;4.73;;;4.00;;
2650;SDS011;1335;48.180;16.342;2022-07-29T12:19:53;5.23;;;4.60;;
2650;SDS011;1335;48.180;16.342;2022-07-29T12:22:24;5.77;;;4.67;;
2650;SDS011;1335;48.180;16.342;2022-07-29T12:24:54;4.83;;;4.33;;
2650;SDS011;1335;48.180;16.342;2022-07-29T12:27:21;4.53;;;4.13;;
2650;SDS011;1335;48.180;16.342;2022-07-29T12:29:58;5.47;;;4.17;;
2650;SDS011;1335;48.180;16.342;2022-07-29T12:32:31;6.23;;;5.63;;
2650;SDS011;1335;48.180;16.342;2022-07-29T12:34:59;4.83;;;4.40;;
2650;SDS011;1335;48.180;16.342;2022-07-29T12:37:32;9.17;;;5.27;;
2650;SDS011;1335;48.180;16.342;2022-07-29T12:40:04;8.13;;;4.40;;
2650;SDS011;1335;48.180;16.342;2022-07-29T12:42:32;6.53;;;4.73;;
2650;SDS011;1335;48.180;16.342;2022-07-29T12:45:00;6.10;;;4.57;;
2650;SDS011;1335;48.180;16.342;2022-07-29T12:47:28;5.10;;;4.50;;
2650;SDS011;1335;48.180;16.342;2022-07-29T12:50:07;8.10;;;4.30;;
2650;SDS011;1335;48.180;16.342;2022-07-29T12:52:35;6.27;;;4.87;;
2650;SDS011;1335;48.180;16.342;2022-07-29T12:55:06;8.60;;;5.37;;
2650;SDS011;1335;48.180;16.342;2022-07-29T12:57:44;9.20;;;4.80;;
2650;SDS011;1335;48.180;16.342;2022-07-29T13:00:12;5.67;;;4.77;;
2650;SDS011;1335;48.180;16.342;2022-07-29T13:02:41;5.43;;;5.03;;
2650;SDS011;1335;48.180;16.342;2022-07-29T13:05:11;6.47;;;4.63;;
2650;SDS011;1335;48.180;16.342;2022-07-29T13:07:39;5.20;;;4.70;;
2650;SDS011;1335;48.180;16.342;2022-07-29T13:10:11;10.67;;;6.00;;
2650;SDS011;1335;48.180;16.342;2022-07-29T13:15:29;5.73;;;5.33;;
2650;SDS011;1335;48.180;16.342;2022-07-29T13:17:56;4.80;;;4.40;;
2650;SDS011;1335;48.180;16.342;2022-07-29T13:20:25;5.83;;;5.37;;
2650;SDS011;1335;48.180;16.342;2022-07-29T13:23:00;5.40;;;4.90;;
2650;SDS011;1335;48.180;16.342;2022-07-29T13:26:06;7.90;;;5.00;;
2650;SDS011;1335;48.180;16.342;2022-07-29T13:28:33;4.97;;;4.50;;
2650;SDS011;1335;48.180;16.342;2022-07-29T13:31:00;4.70;;;4.30;;
2650;SDS011;1335;48.180;16.342;2022-07-29T13:33:28;5.60;;;5.17;;
2650;SDS011;1335;48.180;16.342;2022-07-29T13:35:55;4.63;;;4.23;;
2650;SDS011;1335;48.180;16.342;2022-07-29T13:38:22;7.30;;;4.77;;
2650;SDS011;1335;48.180;16.342;2022-07-29T13:40:50;8.73;;;5.10;;
2650;SDS011;1335;48.180;16.342;2022-07-29T13:43:18;4.97;;;4.57;;
2650;SDS011;1335;48.180;16.342;2022-07-29T13:45:45;5.87;;;4.13;;
2650;SDS011;1335;48.180;16.342;2022-07-29T13:48:12;5.67;;;5.17;;
2650;SDS011;1335;48.180;16.342;2022-07-29T13:50:41;5.87;;;5.37;;
2650;SDS011;1335;48.180;16.342;2022-07-29T13:53:08;4.90;;;4.50;;
2650;SDS011;1335;48.180;16.342;2022-07-29T13:55:37;6.13;;;5.37;;
2650;SDS011;1335;48.180;16.342;2022-07-29T13:58:04;5.87;;;5.10;;
2650;SDS011;1335;48.180;16.342;2022-07-29T14:00:42;6.33;;;5.70;;
2650;SDS011;1335;48.180;16.342;2022-07-29T14:03:28;6.53;;;5.80;;
2650;SDS011;1335;48.180;16.342;2022-07-29T14:05:59;5.80;;;5.10;;
2650;SDS011;1335;48.180;16.342;2022-07-29T14:08:53;5.27;;;4.97;;
2650;SDS011;1335;48.180;16.342;2022-07-29T14:11:28;5.47;;;5.07;;
2650;SDS011;1335;48.180;16.342;2022-07-29T14:14:14;6.17;;;5.67;;
2650;SDS011;1335;48.180;16.342;2022-07-29T14:17:21;6.43;;;5.93;;
2650;SDS011;1335;48.180;16.342;2022-07-29T14:19:48;7.00;;;6.40;;
2650;SDS011;1335;48.180;16.342;2022-07-29T14:22:17;6.83;;;6.33;;
2650;SDS011;1335;48.180;16.342;2022-07-29T14:24:45;7.80;;;7.20;;
2650;SDS011;1335;48.180;16.342;2022-07-29T14:27:12;11.27;;;9.53;;
2650;SDS011;1335;48.180;16.342;2022-07-29T14:29:39;9.30;;;8.03;;
2650;SDS011;1335;48.180;16.342;2022-07-29T14:32:07;8.13;;;7.33;;
2650;SDS011;1335;48.180;16.342;2022-07-29T14:34:36;8.03;;;7.33;;
2650;SDS011;1335;48.180;16.342;2022-07-29T14:37:04;7.03;;;6.40;;
2650;SDS011;1335;48.180;16.342;2022-07-29T14:39:32;8.53;;;7.63;;
2650;SDS011;1335;48.180;16.342;2022-07-29T14:42:00;8.97;;;8.17;;
2650;SDS011;1335;48.180;16.342;2022-07-29T14:44:27;9.13;;;8.33;;
2650;SDS011;1335;48.180;16.342;2022-07-29T14:46:56;9.27;;;8.47;;
2650;SDS011;1335;48.180;16.342;2022-07-29T14:49:28;8.90;;;8.20;;
2650;SDS011;1335;48.180;16.342;2022-07-29T14:51:57;8.67;;;8.00;;
2650;SDS011;1335;48.180;16.342;2022-07-29T14:54:24;9.50;;;8.50;;
2650;SDS011;1335;48.180;16.342;2022-07-29T14:56:53;7.30;;;6.60;;
2650;SDS011;1335;48.180;16.342;2022-07-29T14:59:56;12.57;;;11.47;;
2650;SDS011;1335;48.180;16.342;2022-07-29T15:02:26;9.17;;;8.37;;
2650;SDS011;1335;48.180;16.342;2022-07-29T15:04:53;8.33;;;7.63;;
2650;SDS011;1335;48.180;16.342;2022-07-29T15:07:22;9.47;;;8.77;;
2650;SDS011;1335;48.180;16.342;2022-07-29T15:09:49;8.30;;;7.60;;
2650;SDS011;1335;48.180;16.342;2022-07-29T15:12:16;7.93;;;7.33;;
2650;SDS011;1335;48.180;16.342;2022-07-29T15:14:44;9.20;;;8.40;;
2650;SDS011;1335;48.180;16.342;2022-07-29T15:17:11;9.07;;;8.37;;
2650;SDS011;1335;48.180;16.342;2022-07-29T15:19:38;7.37;;;6.77;;
2650;SDS011;1335;48.180;16.342;2022-07-29T15:22:05;11.87;;;9.90;;
2650;SDS011;1335;48.180;16.342;2022-07-29T15:24:34;7.53;;;7.03;;
2650;SDS011;1335;48.180;16.342;2022-07-29T15:27:01;6.90;;;6.40;;
2650;SDS011;1335;48.180;16.342;2022-07-29T15:29:28;7.80;;;7.20;;
2650;SDS011;1335;48.180;16.342;2022-07-29T15:31:55;7.10;;;6.60;;
2650;SDS011;1335;48.180;16.342;2022-07-29T15:34:23;8.37;;;7.67;;
2650;SDS011;1335;48.180;16.342;2022-07-29T15:36:50;8.87;;;8.17;;
2650;SDS011;1335;48.180;16.342;2022-07-29T15:39:17;8.77;;;8.07;;
2650;SDS011;1335;48.180;16.342;2022-07-29T15:41:58;8.20;;;7.60;;
2650;SDS011;1335;48.180;16.342;2022-07-29T15:44:31;9.37;;;8.67;;
2650;SDS011;1335;48.180;16.342;2022-07-29T15:47:01;9.60;;;8.80;;
2650;SDS011;1335;48.180;16.342;2022-07-29T15:49:31;9.70;;;9.00;;
2650;SDS011;1335;48.180;16.342;2022-07-29T15:51:59;10.50;;;9.50;;
2650;SDS011;1335;48.180;16.342;2022-07-29T15:54:28;10.20;;;9.40;;
2650;SDS011;1335;48.180;16.342;2022-07-29T15:56:57;9.90;;;9.07;;
2650;SDS011;1335;48.180;16.342;2022-07-29T15:59:25;9.93;;;9.03;;
2650;SDS011;1335;48.180;16.342;2022-07-29T16:01:52;9.20;;;8.43;;
2650;SDS011;1335;48.180;16.342;2022-07-29T16:04:21;8.57;;;7.87;;